Terminal Aerodrome Forecast
Issued by NWS Memphis, TN

Home | Current Version | Previous Version | Text Only | Print | Product List | Glossary On
Versions: 1 2 3 4 5 6 7 8 9 10 11 12 13 14
000
FTUS44 KMEG 251726
TAFJBR
TAF
KJBR 251726Z 2518/2618 24014G20KT P6SM VCSH SCT025 OVC050
     FM260100 32016G24KT P6SM OVC030
     FM260800 33010G16KT P6SM BKN025
     FM261200 32008KT P6SM SCT025 OVC050=

USA.gov is the U.S. government's official web portal to all federal, state and local government web resources and services.